createdAt,value
2019-03-15T00:02:07.278Z,81.94
2019-03-15T00:04:39.864Z,82.19
2019-03-15T00:07:08.534Z,82.47
2019-03-15T00:09:38.532Z,82.16
2019-03-15T00:12:08.160Z,81.98
2019-03-15T00:14:39.320Z,82.00
2019-03-15T00:17:09.033Z,81.95
2019-03-15T00:19:39.064Z,82.32
2019-03-15T00:22:08.610Z,81.93
2019-03-15T00:24:38.141Z,81.54
2019-03-15T00:27:07.861Z,80.28
2019-03-15T00:29:39.791Z,81.13
2019-03-15T00:32:10.256Z,81.34
2019-03-15T00:34:42.684Z,81.78
2019-03-15T00:37:12.467Z,81.48
2019-03-15T00:39:42.059Z,80.83
2019-03-15T00:42:11.612Z,80.76
2019-03-15T00:44:41.203Z,80.30
2019-03-15T00:47:10.731Z,79.71
2019-03-15T00:49:40.334Z,79.71
2019-03-15T00:52:09.942Z,80.29
2019-03-15T00:54:39.663Z,79.83
2019-03-15T00:57:12.938Z,79.30
2019-03-15T00:59:42.498Z,79.67
2019-03-15T01:02:12.196Z,78.96
2019-03-15T01:04:42.053Z,78.60
2019-03-15T01:07:11.700Z,78.08
2019-03-15T01:09:41.350Z,79.10
2019-03-15T01:12:11.119Z,79.10
2019-03-15T01:14:40.759Z,79.48
2019-03-15T01:17:10.352Z,79.43
2019-03-15T01:19:40.300Z,79.18
2019-03-15T01:22:10.171Z,79.10
2019-03-15T01:24:39.693Z,80.15
2019-03-15T01:27:09.315Z,80.45
2019-03-15T01:29:39.288Z,80.91
2019-03-15T01:32:09.029Z,81.35
2019-03-15T01:34:38.711Z,81.58
2019-03-15T01:37:08.550Z,81.84
2019-03-15T01:39:38.118Z,82.33
2019-03-15T01:42:07.821Z,81.21
2019-03-15T01:44:37.333Z,81.06
2019-03-15T01:47:07.043Z,80.67
2019-03-15T01:49:36.592Z,80.17
2019-03-15T01:52:07.438Z,80.28
2019-03-15T01:54:37.104Z,80.41
2019-03-15T01:57:06.917Z,80.95
2019-03-15T01:59:36.629Z,81.54
2019-03-15T02:02:06.263Z,81.26
2019-03-15T02:04:36.115Z,80.82
2019-03-15T02:07:05.768Z,80.75
2019-03-15T02:09:35.285Z,81.65
2019-03-15T02:12:04.983Z,80.33
2019-03-15T02:14:34.658Z,81.13
2019-03-15T02:17:04.244Z,80.51
2019-03-15T02:19:35.081Z,80.44
2019-03-15T02:22:05.424Z,80.50
2019-03-15T02:24:37.654Z,80.25
2019-03-15T02:27:07.894Z,79.49
2019-03-15T02:29:37.482Z,79.53
2019-03-15T02:32:09.862Z,79.83
2019-03-15T02:34:39.449Z,79.96
2019-03-15T02:37:09.024Z,80.34
2019-03-15T02:39:38.545Z,80.46
2019-03-15T02:42:11.665Z,81.43
2019-03-15T02:44:41.168Z,81.93
2019-03-15T02:47:10.867Z,81.58
2019-03-15T02:49:40.535Z,82.12
2019-03-15T02:52:10.078Z,82.20
2019-03-15T02:54:39.579Z,81.65
2019-03-15T02:57:09.349Z,82.03
2019-03-15T02:59:38.858Z,81.94
2019-03-15T03:02:08.838Z,82.23
2019-03-15T03:04:39.222Z,82.54
2019-03-15T03:07:08.800Z,82.76
2019-03-15T03:09:38.472Z,82.97
2019-03-15T03:12:08.771Z,83.35
2019-03-15T03:14:38.285Z,83.84
2019-03-15T03:17:07.797Z,83.34
2019-03-15T03:19:37.830Z,83.03
2019-03-15T03:22:08.977Z,82.60
2019-03-15T03:24:38.976Z,82.73
2019-03-15T03:27:08.873Z,83.64
2019-03-15T03:29:38.440Z,83.60
2019-03-15T03:32:07.972Z,82.54
2019-03-15T03:34:40.562Z,81.81
2019-03-15T03:37:10.257Z,81.79
2019-03-15T03:39:39.948Z,82.53
2019-03-15T03:42:10.177Z,81.90
2019-03-15T03:44:39.692Z,81.51
2019-03-15T03:47:10.085Z,81.73
2019-03-15T03:49:39.872Z,81.84
2019-03-15T03:52:09.500Z,82.04
2019-03-15T03:54:39.264Z,81.49
2019-03-15T03:57:08.892Z,81.02
2019-03-15T03:59:38.838Z,80.68
2019-03-15T04:02:08.918Z,81.10
2019-03-15T04:04:38.797Z,81.23
2019-03-15T04:07:08.864Z,81.07
2019-03-15T04:09:40.921Z,82.15
2019-03-15T04:12:10.487Z,82.27
2019-03-15T04:14:40.261Z,82.02
2019-03-15T04:17:09.802Z,82.12
2019-03-15T04:19:39.500Z,81.87
2019-03-15T04:22:09.266Z,81.20
2019-03-15T04:24:39.010Z,80.75
2019-03-15T04:27:08.531Z,80.38
2019-03-15T04:29:38.126Z,80.14
2019-03-15T04:32:07.960Z,80.73
2019-03-15T04:34:37.844Z,80.66
2019-03-15T04:37:09.225Z,80.75
2019-03-15T04:39:40.327Z,80.69
2019-03-15T04:42:10.190Z,80.45
2019-03-15T04:44:39.716Z,79.92
2019-03-15T04:47:10.285Z,80.08
2019-03-15T04:49:39.812Z,81.12
2019-03-15T04:52:09.517Z,80.79
2019-03-15T04:54:39.113Z,80.92
2019-03-15T04:57:08.711Z,80.21
2019-03-15T04:59:38.227Z,79.96
2019-03-15T05:02:07.756Z,79.91
2019-03-15T05:04:37.387Z,79.42
2019-03-15T05:07:06.961Z,78.92
2019-03-15T05:09:38.038Z,79.02
2019-03-15T05:12:07.873Z,80.27
2019-03-15T05:14:37.584Z,80.66
2019-03-15T05:17:07.543Z,81.58
2019-03-15T05:19:56.531Z,81.61
2019-03-15T05:22:26.384Z,80.60
2019-03-15T05:24:57.800Z,81.05
2019-03-15T05:27:27.797Z,81.77
2019-03-15T05:29:57.917Z,81.34
2019-03-15T05:32:30.828Z,81.48
2019-03-15T05:34:59.552Z,81.65
2019-03-15T05:37:29.389Z,81.55
2019-03-15T05:39:59.191Z,82.44
2019-03-15T05:42:28.913Z,82.56
2019-03-15T05:44:59.646Z,82.36
2019-03-15T05:47:29.354Z,81.88
2019-03-15T05:49:58.969Z,81.98
2019-03-15T05:52:28.798Z,82.53
2019-03-15T05:54:58.473Z,81.44
2019-03-15T05:57:27.964Z,81.15
2019-03-15T05:59:57.682Z,80.92
2019-03-15T06:02:27.360Z,80.24
2019-03-15T06:04:56.995Z,80.36
2019-03-15T06:07:27.296Z,81.07
2019-03-15T06:09:57.006Z,81.16
2019-03-15T06:12:28.222Z,81.38
2019-03-15T06:14:58.020Z,80.97
2019-03-15T06:17:27.644Z,81.14
2019-03-15T06:19:57.180Z,80.89
2019-03-15T06:22:28.909Z,80.27
2019-03-15T06:24:58.447Z,80.38
2019-03-15T06:27:31.018Z,79.79
2019-03-15T06:29:59.519Z,79.07
2019-03-15T06:32:29.072Z,79.03
2019-03-15T06:34:58.657Z,79.02
2019-03-15T06:37:28.192Z,80.58
2019-03-15T06:39:57.802Z,79.69
2019-03-15T06:42:27.408Z,78.85
2019-03-15T06:44:58.268Z,79.45
2019-03-15T06:47:27.938Z,78.59
2019-03-15T06:49:59.077Z,79.59
2019-03-15T06:52:28.791Z,79.47
2019-03-15T06:54:58.397Z,78.90
2019-03-15T06:57:27.913Z,78.50
2019-03-15T06:59:59.639Z,78.55
2019-03-15T07:02:28.754Z,78.29
2019-03-15T07:04:58.274Z,78.38
2019-03-15T07:07:27.872Z,78.61
2019-03-15T07:09:57.396Z,78.63
2019-03-15T07:12:26.989Z,79.07
2019-03-15T07:14:57.066Z,78.41
2019-03-15T07:17:26.619Z,78.27
2019-03-15T07:19:56.188Z,77.02
2019-03-15T07:22:27.087Z,75.98
2019-03-15T07:24:56.969Z,75.55
2019-03-15T07:27:26.839Z,76.51
2019-03-15T07:29:56.468Z,76.66
2019-03-15T07:32:25.982Z,77.02
2019-03-15T07:34:55.792Z,76.68
2019-03-15T07:37:25.839Z,77.01
2019-03-15T07:39:55.409Z,76.61
2019-03-15T07:42:25.055Z,76.35
2019-03-15T07:44:54.833Z,75.22
2019-03-15T07:47:24.338Z,75.36
2019-03-15T07:49:53.872Z,75.41
2019-03-15T07:52:23.466Z,75.60
2019-03-15T07:54:53.039Z,75.19
2019-03-15T07:57:22.538Z,75.65
2019-03-15T07:59:52.260Z,74.56
2019-03-15T08:02:22.004Z,74.91
2019-03-15T08:04:51.607Z,74.87
2019-03-15T08:07:21.155Z,73.99
2019-03-15T08:09:51.264Z,75.33
2019-03-15T08:12:21.100Z,73.45
2019-03-15T08:14:50.666Z,72.01
2019-03-15T08:17:20.180Z,71.41
2019-03-15T08:19:49.698Z,71.61
2019-03-15T08:22:19.805Z,71.63
2019-03-15T08:24:51.754Z,70.85
2019-03-15T08:27:20.574Z,70.51
2019-03-15T08:29:52.592Z,71.37
2019-03-15T08:32:21.471Z,73.07
2019-03-15T08:34:51.129Z,73.87
2019-03-15T08:37:21.695Z,73.70
2019-03-15T08:39:51.394Z,74.30
2019-03-15T08:42:21.306Z,73.35
2019-03-15T08:44:51.566Z,72.19
2019-03-15T08:47:21.846Z,71.61
2019-03-15T08:49:51.882Z,70.52
2019-03-15T08:52:22.697Z,66.84
2019-03-15T08:55:04.661Z,64.82
2019-03-15T08:57:23.538Z,62.00
2019-03-15T08:59:57.430Z,61.46
2019-03-15T09:02:24.419Z,63.39
2019-03-15T09:04:53.933Z,64.22
2019-03-15T09:07:24.078Z,64.65
2019-03-15T09:09:53.734Z,69.38
2019-03-15T09:12:23.230Z,68.63
2019-03-15T09:14:52.801Z,68.88
2019-03-15T09:17:22.325Z,67.99
2019-03-15T09:19:51.925Z,68.75
2019-03-15T09:22:21.606Z,68.08
2019-03-15T09:24:51.268Z,67.39
2019-03-15T09:27:20.773Z,67.58
2019-03-15T09:29:50.378Z,68.89
2019-03-15T09:32:19.971Z,68.94
2019-03-15T09:34:50.837Z,69.04
2019-03-15T09:37:23.123Z,69.09
2019-03-15T09:39:52.639Z,69.17
2019-03-15T09:42:22.401Z,66.67
2019-03-15T09:44:52.560Z,65.31
2019-03-15T09:47:22.143Z,65.95
2019-03-15T09:49:51.812Z,65.96
2019-03-15T09:52:21.614Z,67.72
2019-03-15T09:54:51.542Z,68.57
2019-03-15T09:57:21.078Z,66.97
2019-03-15T09:59:50.873Z,64.67
2019-03-15T10:02:29.698Z,63.59
2019-03-15T10:04:51.934Z,63.72
2019-03-15T10:07:21.671Z,65.04
2019-03-15T10:09:51.278Z,65.53
2019-03-15T10:12:20.978Z,65.57
2019-03-15T10:14:50.526Z,65.45
2019-03-15T10:17:22.987Z,66.33
2019-03-15T10:19:51.357Z,65.64
2019-03-15T10:22:21.147Z,66.20
2019-03-15T10:24:51.052Z,65.16
2019-03-15T10:27:20.612Z,66.32
2019-03-15T10:29:50.343Z,67.95
2019-03-15T10:32:19.852Z,68.43
2019-03-15T10:34:49.355Z,68.81
2019-03-15T10:37:19.564Z,69.84
2019-03-15T10:39:50.717Z,71.39
2019-03-15T10:42:20.291Z,71.78
2019-03-15T10:44:49.973Z,71.94
2019-03-15T10:47:19.507Z,71.93
2019-03-15T10:49:49.030Z,73.07
2019-03-15T10:52:19.667Z,73.70
2019-03-15T10:54:49.316Z,73.19
2019-03-15T10:57:18.976Z,73.75
2019-03-15T10:59:48.544Z,75.32
2019-03-15T11:02:18.082Z,76.34
2019-03-15T11:04:47.602Z,76.41
2019-03-15T11:07:17.210Z,75.54
2019-03-15T11:09:46.796Z,74.59
2019-03-15T11:12:16.388Z,75.55
2019-03-15T11:14:48.896Z,75.86
2019-03-15T11:17:18.546Z,74.30
2019-03-15T11:19:48.058Z,76.26
2019-03-15T11:22:17.793Z,75.96
2019-03-15T11:24:47.465Z,77.09
2019-03-15T11:27:17.093Z,77.80
2019-03-15T11:29:46.870Z,78.02
2019-03-15T11:32:16.477Z,78.16
2019-03-15T11:34:45.982Z,79.33
2019-03-15T11:37:16.108Z,80.90
2019-03-15T11:39:45.647Z,82.15
2019-03-15T11:42:15.531Z,83.18
2019-03-15T11:44:45.192Z,82.96
2019-03-15T11:47:14.811Z,83.25
2019-03-15T11:49:44.400Z,84.27
2019-03-15T11:52:13.955Z,85.11
2019-03-15T11:54:49.655Z,86.45
2019-03-15T11:57:17.859Z,87.54
2019-03-15T11:59:47.799Z,88.10
2019-03-15T12:02:17.322Z,88.33
2019-03-15T12:04:46.876Z,89.35
2019-03-15T12:07:19.238Z,89.79
2019-03-15T12:09:48.834Z,89.88
2019-03-15T12:12:21.533Z,89.75
2019-03-15T12:14:50.374Z,88.98
2019-03-15T12:17:20.176Z,89.81
2019-03-15T12:19:49.714Z,91.00
2019-03-15T12:22:19.726Z,91.84
2019-03-15T12:24:49.863Z,91.37
2019-03-15T12:27:19.477Z,92.20
2019-03-15T12:29:49.039Z,93.05
2019-03-15T12:32:18.574Z,91.83
2019-03-15T12:34:48.937Z,91.71
2019-03-15T12:37:19.025Z,91.31
2019-03-15T12:39:48.854Z,91.97
2019-03-15T12:42:18.441Z,91.15
2019-03-15T12:44:48.408Z,91.20
2019-03-15T12:47:18.581Z,91.33
2019-03-15T12:49:48.128Z,91.92
2019-03-15T12:52:20.765Z,91.81
2019-03-15T12:54:50.701Z,92.94
2019-03-15T12:57:20.733Z,92.45
2019-03-15T12:59:50.344Z,92.45
2019-03-15T13:02:20.568Z,91.32
2019-03-15T13:04:52.044Z,92.37
2019-03-15T13:07:22.594Z,91.91
2019-03-15T13:09:52.186Z,90.82
2019-03-15T13:12:21.964Z,91.63
2019-03-15T13:14:53.030Z,90.42
2019-03-15T13:17:22.545Z,89.57
2019-03-15T13:19:55.328Z,89.58
2019-03-15T13:22:23.670Z,90.19
2019-03-15T13:24:55.096Z,90.02
2019-03-15T13:27:24.828Z,90.64
2019-03-15T13:29:55.023Z,90.20
2019-03-15T13:32:24.617Z,88.87
2019-03-15T13:34:54.459Z,89.14
2019-03-15T13:37:24.094Z,88.84
2019-03-15T13:39:53.878Z,88.40
2019-03-15T13:42:23.465Z,87.84
2019-03-15T13:44:53.202Z,87.23
2019-03-15T13:47:22.797Z,87.07
2019-03-15T13:49:52.339Z,86.93
2019-03-15T13:52:22.438Z,86.60
2019-03-15T13:54:52.058Z,85.23
2019-03-15T13:57:21.925Z,85.05
2019-03-15T13:59:51.802Z,80.71
2019-03-15T14:02:21.397Z,72.85
2019-03-15T14:04:50.925Z,70.17
2019-03-15T14:07:20.657Z,72.23
2019-03-15T14:09:50.183Z,73.10
2019-03-15T14:12:21.340Z,72.85
2019-03-15T14:14:51.031Z,72.85
2019-03-15T14:17:20.531Z,74.15
2019-03-15T14:19:50.229Z,74.77
2019-03-15T14:22:19.800Z,75.53
2019-03-15T14:24:49.312Z,75.55
2019-03-15T14:27:18.921Z,75.44
2019-03-15T14:29:48.522Z,75.66
2019-03-15T14:32:18.112Z,75.47
2019-03-15T14:34:47.652Z,70.30
2019-03-15T14:37:17.727Z,66.19
2019-03-15T14:39:47.390Z,64.42
2019-03-15T14:42:16.993Z,63.94
2019-03-15T14:44:46.689Z,64.29
2019-03-15T14:47:16.837Z,64.39
2019-03-15T14:49:46.663Z,65.38
2019-03-15T14:52:16.337Z,66.00
2019-03-15T14:54:45.956Z,65.58
2019-03-15T14:57:15.880Z,63.61
2019-03-15T14:59:48.837Z,60.91
2019-03-15T15:02:18.775Z,60.56
2019-03-15T15:04:48.362Z,60.44
2019-03-15T15:07:18.088Z,60.49
2019-03-15T15:09:50.532Z,60.94
2019-03-15T15:12:20.273Z,60.44
2019-03-15T15:14:54.139Z,58.92
2019-03-15T15:17:24.001Z,56.14
2019-03-15T15:19:53.875Z,53.85
2019-03-15T15:22:23.433Z,50.92
2019-03-15T15:24:53.987Z,48.34
2019-03-15T15:27:25.596Z,47.52
2019-03-15T15:29:55.664Z,47.29
2019-03-15T15:32:26.984Z,47.63
2019-03-15T15:34:57.205Z,47.85
2019-03-15T15:37:26.944Z,46.74
2019-03-15T15:40:00.717Z,47.26
2019-03-15T15:42:30.760Z,48.31
2019-03-15T15:45:06.541Z,47.88
2019-03-15T15:47:36.179Z,50.13
2019-03-15T15:50:10.982Z,51.04
2019-03-15T15:52:40.572Z,52.13
2019-03-15T15:55:13.110Z,52.29
2019-03-15T15:57:42.790Z,53.29
2019-03-15T16:00:15.245Z,53.45
2019-03-15T16:02:44.912Z,52.75
2019-03-15T16:05:16.952Z,54.31
2019-03-15T16:07:46.780Z,53.47
2019-03-15T16:10:18.288Z,53.89
2019-03-15T16:12:48.832Z,54.21
2019-03-15T16:15:20.032Z,54.47
2019-03-15T16:17:49.963Z,55.28
2019-03-15T16:20:19.989Z,54.84
2019-03-15T16:23:08.950Z,55.55
2019-03-15T16:25:38.503Z,55.12
2019-03-15T16:28:08.244Z,55.07
2019-03-15T16:30:37.863Z,55.33
2019-03-15T16:33:07.558Z,55.37
2019-03-15T16:35:37.124Z,55.86
2019-03-15T16:38:06.787Z,56.34
2019-03-15T16:40:41.000Z,56.20
2019-03-15T16:43:10.594Z,56.95
2019-03-15T16:45:40.124Z,56.29
2019-03-15T16:48:09.758Z,56.37
2019-03-15T16:50:39.348Z,56.73
2019-03-15T16:53:09.139Z,56.81
2019-03-15T16:55:41.721Z,56.77
2019-03-15T16:58:11.312Z,56.51
2019-03-15T17:00:40.912Z,56.46
2019-03-15T17:03:10.662Z,56.59
2019-03-15T17:05:40.402Z,56.82
2019-03-15T17:08:10.141Z,56.85
2019-03-15T17:10:39.847Z,56.67
2019-03-15T17:13:09.370Z,57.12
2019-03-15T17:15:38.900Z,56.94
2019-03-15T17:18:08.605Z,57.00
2019-03-15T17:20:38.450Z,56.65
2019-03-15T17:23:08.280Z,56.70
2019-03-15T17:25:38.415Z,56.82
2019-03-15T17:28:08.195Z,56.58
2019-03-15T17:30:38.006Z,56.41
2019-03-15T17:33:08.051Z,56.62
2019-03-15T17:35:37.837Z,57.39
2019-03-15T17:38:07.653Z,59.35
2019-03-15T17:40:37.418Z,59.63
2019-03-15T17:43:10.088Z,59.45
2019-03-15T17:45:40.736Z,58.88
2019-03-15T17:48:10.442Z,59.24
2019-03-15T17:50:40.076Z,59.94
2019-03-15T17:53:09.770Z,59.75
2019-03-15T17:55:39.504Z,59.42
2019-03-15T17:58:09.255Z,60.50
2019-03-15T18:00:47.902Z,61.10
2019-03-15T18:03:21.575Z,61.09
2019-03-15T18:05:49.180Z,61.27
2019-03-15T18:08:23.648Z,60.86
2019-03-15T18:10:53.180Z,60.41
2019-03-15T18:13:22.848Z,60.04
2019-03-15T18:15:52.491Z,59.23
2019-03-15T18:18:22.332Z,58.08
2019-03-15T18:20:52.092Z,57.96
2019-03-15T18:23:21.759Z,57.89
2019-03-15T18:25:51.606Z,57.12
2019-03-15T18:28:21.277Z,56.85
2019-03-15T18:30:51.243Z,56.71
2019-03-15T18:33:20.773Z,57.27
2019-03-15T18:35:50.600Z,57.18
2019-03-15T18:38:20.636Z,56.14
2019-03-15T18:40:51.848Z,56.26
2019-03-15T18:43:21.578Z,56.46
2019-03-15T18:45:51.801Z,56.93
2019-03-15T18:48:40.735Z,57.33
2019-03-15T18:51:11.165Z,57.25
2019-03-15T18:53:41.145Z,57.14
2019-03-15T18:56:10.931Z,57.60
2019-03-15T18:58:40.638Z,57.43
2019-03-15T19:01:12.865Z,57.15
2019-03-15T19:03:42.698Z,56.79
2019-03-15T19:06:13.478Z,56.93
2019-03-15T19:08:43.195Z,56.82
2019-03-15T19:11:13.417Z,56.92
2019-03-15T19:13:44.782Z,56.35
2019-03-15T19:16:19.843Z,56.27
2019-03-15T19:18:45.895Z,56.11
2019-03-15T19:21:15.997Z,56.05
2019-03-15T19:23:45.629Z,56.48
2019-03-15T19:26:15.130Z,56.52
2019-03-15T19:28:44.911Z,56.51
2019-03-15T19:31:14.530Z,56.83
2019-03-15T19:33:44.116Z,56.93
2019-03-15T19:36:16.412Z,57.00
2019-03-15T19:38:46.058Z,56.96
2019-03-15T19:41:15.683Z,56.90
2019-03-15T19:43:45.893Z,56.60
2019-03-15T19:46:15.859Z,55.88
2019-03-15T19:48:50.565Z,56.00
2019-03-15T19:51:20.503Z,55.84
2019-03-15T19:53:50.176Z,56.26
2019-03-15T19:56:20.035Z,56.19
2019-03-15T19:58:50.023Z,56.68
2019-03-15T20:01:19.535Z,56.68
2019-03-15T20:03:49.037Z,56.88
2019-03-15T20:06:18.576Z,56.93
2019-03-15T20:08:48.871Z,57.12
2019-03-15T20:11:18.469Z,56.82
2019-03-15T20:13:48.037Z,56.98
2019-03-15T20:16:17.582Z,57.30
2019-03-15T20:18:48.007Z,58.01
2019-03-15T20:21:17.931Z,57.52
2019-03-15T20:23:47.751Z,57.84
2019-03-15T20:26:17.254Z,57.72
2019-03-15T20:28:46.865Z,57.10
2019-03-15T20:31:16.618Z,57.44
2019-03-15T20:33:46.384Z,56.92
2019-03-15T20:36:16.072Z,56.89
2019-03-15T20:38:45.912Z,56.44
2019-03-15T20:41:15.442Z,57.00
2019-03-15T20:43:45.113Z,56.80
2019-03-15T20:46:15.947Z,57.04
2019-03-15T20:48:45.855Z,57.55
2019-03-15T20:51:15.862Z,57.94
2019-03-15T20:53:46.041Z,58.07
2019-03-15T20:56:15.976Z,58.60
2019-03-15T20:58:45.554Z,58.71
2019-03-15T21:01:15.254Z,58.13
2019-03-15T21:03:55.491Z,58.34
2019-03-15T21:06:18.136Z,58.71
2019-03-15T21:08:47.664Z,58.90
2019-03-15T21:11:17.169Z,58.47
2019-03-15T21:13:46.710Z,58.42
2019-03-15T21:16:18.271Z,58.53
2019-03-15T21:18:47.552Z,59.10
2019-03-15T21:21:17.119Z,59.37
2019-03-15T21:23:46.611Z,59.23
2019-03-15T21:26:16.136Z,59.74
2019-03-15T21:28:45.996Z,59.42
2019-03-15T21:31:15.649Z,59.46
2019-03-15T21:33:45.144Z,59.05
2019-03-15T21:36:15.374Z,59.22
2019-03-15T21:38:48.376Z,59.43
2019-03-15T21:41:16.431Z,59.59
2019-03-15T21:43:45.970Z,59.79
2019-03-15T21:46:15.476Z,59.66
2019-03-15T21:48:45.292Z,59.79
2019-03-15T21:51:14.958Z,60.43
2019-03-15T21:53:44.466Z,60.28
2019-03-15T21:56:13.990Z,60.48
2019-03-15T21:58:43.538Z,61.05
2019-03-15T22:01:13.174Z,60.67
2019-03-15T22:03:42.785Z,60.68
2019-03-15T22:06:12.287Z,61.01
2019-03-15T22:08:41.791Z,61.28
2019-03-15T22:11:21.047Z,60.90
2019-03-15T22:13:43.219Z,60.80
2019-03-15T22:16:12.821Z,61.15
2019-03-15T22:18:42.795Z,60.97
2019-03-15T22:21:12.419Z,60.76
2019-03-15T22:23:42.053Z,60.56
2019-03-15T22:26:11.735Z,60.42
2019-03-15T22:28:41.372Z,60.68
2019-03-15T22:31:16.630Z,60.63
2019-03-15T22:33:42.372Z,60.82
2019-03-15T22:36:12.151Z,60.99
2019-03-15T22:38:41.838Z,61.05
2019-03-15T22:41:11.429Z,61.22
2019-03-15T22:43:41.199Z,61.12
2019-03-15T22:46:10.755Z,61.16
2019-03-15T22:48:40.342Z,61.89
2019-03-15T22:51:09.957Z,61.44
2019-03-15T22:53:39.609Z,61.98
2019-03-15T22:56:09.243Z,61.94
2019-03-15T22:58:38.924Z,61.62
2019-03-15T23:01:09.158Z,62.59
2019-03-15T23:03:38.691Z,63.11
2019-03-15T23:06:09.675Z,63.10
2019-03-15T23:08:39.262Z,63.15
2019-03-15T23:11:08.807Z,63.10
2019-03-15T23:13:38.330Z,63.43
2019-03-15T23:16:27.207Z,63.62
2019-03-15T23:18:57.206Z,63.24
2019-03-15T23:21:26.724Z,63.83
2019-03-15T23:23:56.329Z,63.36
2019-03-15T23:26:27.464Z,63.70
2019-03-15T23:29:00.303Z,63.62
2019-03-15T23:31:42.703Z,64.29
2019-03-15T23:34:03.959Z,63.57
2019-03-15T23:36:33.545Z,63.13
2019-03-15T23:39:04.400Z,63.78
2019-03-15T23:41:33.965Z,63.96
2019-03-15T23:44:03.465Z,63.56
2019-03-15T23:46:33.042Z,63.90
2019-03-15T23:49:02.739Z,63.53
2019-03-15T23:51:33.338Z,63.96
2019-03-15T23:54:02.951Z,63.97
2019-03-15T23:56:32.887Z,63.70
2019-03-15T23:59:02.505Z,63.70
